Buhl, Minnesota
Current Conditions -  °F | °C
As of 8:53 AM on Thursday 18 Dec 2014 (Local Time) from KHIB Reporting Station
Overcast Overcast  
Wind Chill: 17°   Ceiling: 1200
Heat Index: 17°   Visibility: 9mi
Dew Point: 12°   Wind: 0mph
Humidity: 81%   Direction: NA
Pressure: 30.28"   Gusts: NA
Location:  47.49°N, 92.78°W
Report Text: KHIB 181453Z AUTO 00000KT 9SM OVC012 M08/M11 A3028 RMK AO2 SNE1354 SLP284 P0000 60000 T10831111 51001
Loading
Personal Weather Stations






























Interactive Weather Map New forecast layout! Learn more

10-Day Weather Forecast

Advertisements
Track Severe Weather on mobile